Time;durP1;ratioP1;P1;durP2;ratioP2;P2;SDS_P1;SDS_P2;PMS_P1;PMS_P2;Temp;Humidity;BMP_temperature;BMP_pressure;BME280_temperature;BME280_humidity;BME280_pressure;Samples;Min_cycle;Max_cycle;Signal;HPM_P1;HPM_P2
2021/12/15 00:00:30;;;;;;;84.43;32.75;;;;;;;7.83;100.00;102806.81;4957882;28;20077;-69
2021/12/15 00:02:56;;;;;;;97.32;38.25;;;;;;;8.43;100.00;102858.22;4962368;28;20034;-68
2021/12/15 00:05:23;;;;;;;86.43;36.35;;;;;;;7.93;100.00;102814.47;4961858;28;20037;-68
2021/12/15 00:07:51;;;;;;;81.95;30.40;;;;;;;8.09;100.00;102821.94;4960760;28;20496;-68
2021/12/15 00:10:17;;;;;;;71.63;25.45;;;;;;;8.15;100.00;102861.88;4960877;28;20038;-69
2021/12/15 00:12:43;;;;;;;91.95;33.80;;;;;;;8.33;100.00;102841.63;4941684;28;20110;-75
2021/12/15 00:15:09;;;;;;;73.22;26.92;;;;;;;8.10;100.00;102813.00;4965031;28;20110;-69
2021/12/15 00:17:36;;;;;;;70.35;25.70;;;;;;;8.07;100.00;102808.63;4962057;28;20027;-69
2021/12/15 00:20:02;;;;;;;83.43;31.52;;;;;;;8.09;100.00;102803.22;4960920;28;20037;-69
2021/12/15 00:22:28;;;;;;;67.93;26.63;;;;;;;7.71;100.00;102800.06;4954781;28;20284;-69
2021/12/15 00:24:53;;;;;;;80.65;29.52;;;;;;;8.08;100.00;102847.81;4961340;28;20038;-69
2021/12/15 00:27:19;;;;;;;70.75;27.20;;;;;;;8.29;100.00;102850.69;4956195;28;20039;-69
2021/12/15 00:29:44;;;;;;;72.65;26.15;;;;;;;8.31;100.00;102848.81;4965427;28;20038;-75
2021/12/15 00:32:09;;;;;;;77.53;25.58;;;;;;;8.06;100.00;102833.66;4959229;28;20097;-75
2021/12/15 00:34:38;;;;;;;83.47;28.40;;;;;;;8.04;100.00;102808.75;4953743;28;20371;-74
2021/12/15 00:37:04;;;;;;;93.40;30.70;;;;;;;8.05;100.00;102858.66;4957987;28;20026;-76
2021/12/15 00:39:30;;;;;;;94.50;34.47;;;;;;;7.88;100.00;102821.78;4958406;28;20026;-76
2021/12/15 00:41:56;;;;;;;86.53;29.35;;;;;;;8.15;100.00;102828.88;4961407;28;20075;-75
2021/12/15 00:44:22;;;;;;;109.03;41.70;;;;;;;8.61;100.00;102856.66;4956862;28;20082;-74
2021/12/15 00:46:50;;;;;;;87.75;29.50;;;;;;;8.10;100.00;102853.97;4960210;28;20303;-75
2021/12/15 00:49:16;;;;;;;94.65;33.65;;;;;;;8.31;100.00;102850.59;4955161;28;20386;-75
2021/12/15 00:51:42;;;;;;;84.78;27.48;;;;;;;8.15;100.00;102844.94;4957801;28;20039;-75
2021/12/15 00:54:09;;;;;;;107.93;37.55;;;;;;;8.26;100.00;102832.91;4955809;28;20023;-74
2021/12/15 00:56:34;;;;;;;117.57;38.90;;;;;;;8.15;100.00;102836.91;4960722;28;20038;-69
2021/12/15 00:59:01;;;;;;;106.05;35.75;;;;;;;8.22;100.00;102841.13;4956663;28;20406;-74
2021/12/15 01:01:27;;;;;;;99.47;35.75;;;;;;;8.35;100.00;102853.09;4961887;28;20390;-74
2021/12/15 01:03:53;;;;;;;106.97;36.65;;;;;;;7.93;100.00;102826.97;4955703;28;20031;-75
2021/12/15 01:06:21;;;;;;;87.63;29.00;;;;;;;8.13;100.00;102844.09;4966353;28;20038;-74
2021/12/15 01:08:53;;;;;;;87.30;28.55;;;;;;;8.21;100.00;102842.91;4962214;28;20023;-75
2021/12/15 01:11:43;;;;;;;88.50;28.77;;;;;;;8.32;100.00;102838.97;4958314;28;20524;-68
2021/12/15 01:19:52;;;;;;;99.20;34.85;;;;;;;8.37;100.00;102845.03;4956617;28;20084;-74
2021/12/15 01:22:29;;;;;;;117.15;39.55;;;;;;;8.24;100.00;102833.91;4957234;28;20035;-69
2021/12/15 01:24:58;;;;;;;94.97;30.05;;;;;;;8.17;100.00;102859.13;4950809;28;20038;-68
2021/12/15 01:27:24;;;;;;;107.55;39.05;;;;;;;8.34;100.00;102835.28;4958125;28;20461;-74
2021/12/15 01:29:50;;;;;;;97.78;32.20;;;;;;;8.46;100.00;102831.34;4955139;28;20035;-75
2021/12/15 01:32:16;;;;;;;88.95;30.15;;;;;;;8.02;100.00;102807.03;4960331;28;20034;-69
2021/12/15 01:34:41;;;;;;;99.10;33.60;;;;;;;8.24;100.00;102853.50;4953908;28;20029;-68
2021/12/15 01:37:07;;;;;;;104.63;35.38;;;;;;;8.46;100.00;102831.34;4954292;28;20031;-74
2021/12/15 01:39:33;;;;;;;93.55;33.08;;;;;;;8.45;100.00;102839.41;4958054;28;20027;-68
2021/12/15 01:41:58;;;;;;;89.07;31.48;;;;;;;8.17;100.00;102843.97;4958532;28;20530;-68
2021/12/15 01:47:00;;;;;;;88.55;28.45;;;;;;;8.01;100.00;102846.31;4958119;28;20023;-74
2021/12/15 01:49:37;;;;;;;110.72;38.20;;;;;;;8.36;100.00;102848.66;4959918;28;20840;-74
2021/12/15 01:52:20;;;;;;;115.63;39.30;;;;;;;8.39;100.00;102853.88;4951147;28;20030;-74
2021/12/15 01:54:49;;;;;;;103.88;34.35;;;;;;;8.24;100.00;102844.59;4955408;28;20502;-74
2021/12/15 01:57:15;;;;;;;80.50;29.58;;;;;;;8.18;100.00;102840.38;4950690;28;20045;-75
2021/12/15 01:59:42;;;;;;;97.97;31.25;;;;;;;8.21;100.00;102853.59;4957254;28;20019;-74
2021/12/15 02:02:07;;;;;;;103.53;32.53;;;;;;;8.16;100.00;102844.91;4956621;28;20038;-74
2021/12/15 02:04:33;;;;;;;87.22;28.42;;;;;;;8.11;100.00;102858.41;4957380;28;20035;-74
2021/12/15 02:07:01;;;;;;;88.57;28.77;;;;;;;8.41;100.00;102865.41;4954302;28;20049;-74
2021/12/15 02:12:11;;;;;;;;;;;;;;;8.05;100.00;102873.81;4954046;28;20038;-68
2021/12/15 02:14:36;;;;;;;82.93;25.65;;;;;;;8.06;100.00;102870.22;4956548;28;19918;-74
2021/12/15 02:17:03;;;;;;;91.63;29.08;;;;;;;8.14;100.00;102872.59;4957571;28;20082;-74
2021/12/15 02:19:29;;;;;;;108.97;34.58;;;;;;;8.13;100.00;102873.53;4954479;28;20043;-75
2021/12/15 02:21:59;;;;;;;98.35;31.98;;;;;;;7.88;100.00;102843.19;4955964;28;20022;-69
2021/12/15 02:24:24;;;;;;;89.97;29.00;;;;;;;8.06;100.00;102868.44;4953682;28;20018;-74
2021/12/15 02:26:57;;;;;;;91.55;32.90;;;;;;;7.90;100.00;102868.06;4958504;28;20427;-74
2021/12/15 02:29:23;;;;;;;70.43;24.23;;;;;;;7.94;100.00;102834.06;4956033;28;20026;-68
2021/12/15 02:39:28;;;;;;;84.18;26.38;;;;;;;7.79;100.00;102851.50;4957051;28;20053;-68
2021/12/15 02:41:54;;;;;;;87.50;29.23;;;;;;;7.56;100.00;102802.34;4957696;28;20388;-68
2021/12/15 02:44:23;;;;;;;87.78;29.65;;;;;;;7.68;100.00;102829.63;4955118;28;20078;-68
2021/12/15 02:46:49;;;;;;;92.82;34.95;;;;;;;8.21;100.00;102874.16;4949999;28;20026;-69
2021/12/15 02:49:18;;;;;;;79.90;28.75;;;;;;;7.76;100.00;102816.84;4955822;28;20023;-69
2021/12/15 02:51:46;;;;;;;87.70;27.40;;;;;;;7.77;100.00;102819.47;4955790;28;20079;-68
2021/12/15 02:54:13;;;;;;;85.70;30.90;;;;;;;7.99;100.00;102860.63;4956463;28;20035;-68
2021/12/15 02:56:43;;;;;;;87.80;29.60;;;;;;;7.69;100.00;102817.97;4960973;28;20038;-69
2021/12/15 02:59:11;;;;;;;88.13;30.17;;;;;;;7.93;100.00;102867.97;4950925;28;20026;-68
2021/12/15 03:02:05;;;;;;;79.18;22.08;;;;;;;7.90;100.00;102848.47;4954498;28;20779;-68
2021/12/15 03:04:51;;;;;;;107.18;39.80;;;;;;;8.04;100.00;102842.63;4952480;28;20106;-69
2021/12/15 03:15:31;;;;;;;104.72;35.35;;;;;;;8.06;100.00;102883.59;4946455;28;20134;-69
2021/12/15 03:18:07;;;;;;;94.22;27.77;;;;;;;7.95;100.00;102865.22;4954611;28;20019;-68
2021/12/15 03:20:41;;;;;;;90.55;27.85;;;;;;;8.13;100.00;102866.41;4952860;28;20059;-68
2021/12/15 03:23:10;;;;;;;81.32;25.73;;;;;;;7.73;100.00;102828.53;4955944;28;20054;-68
2021/12/15 03:25:35;;;;;;;92.18;25.75;;;;;;;7.40;100.00;102766.41;4959378;28;20042;-68
2021/12/15 03:33:38;;;;;;;84.70;26.13;;;;;;;8.00;100.00;102847.22;4954283;28;20041;-74
2021/12/15 03:36:11;;;;;;;99.05;29.75;;;;;;;7.91;100.00;102864.47;4953965;28;20040;-69
2021/12/15 03:38:37;;;;;;;104.88;31.98;;;;;;;8.04;100.00;102845.31;4936363;28;20105;-75
2021/12/15 03:41:04;;;;;;;89.93;28.20;;;;;;;8.02;100.00;102872.13;4955245;28;20046;-68
2021/12/15 03:43:31;;;;;;;96.97;30.73;;;;;;;8.09;100.00;102851.38;4951972;28;20138;-68
2021/12/15 03:46:04;;;;;;;86.60;27.70;;;;;;;8.02;100.00;102858.75;4955320;28;20986;-68
2021/12/15 03:48:33;;;;;;;95.95;31.60;;;;;;;8.13;100.00;102863.72;4952120;28;20107;-69
2021/12/15 03:51:00;;;;;;;99.88;29.70;;;;;;;8.15;100.00;102877.03;4954874;28;20033;-68
2021/12/15 03:53:26;;;;;;;99.65;34.60;;;;;;;8.15;100.00;102880.59;4958435;28;20030;-68
2021/12/15 03:55:52;;;;;;;87.57;25.67;;;;;;;8.07;100.00;102883.56;4952309;28;20057;-74
2021/12/15 03:58:21;;;;;;;87.18;25.90;;;;;;;8.07;100.00;102874.63;4952483;28;20809;-75
2021/12/15 04:00:53;;;;;;;89.72;26.30;;;;;;;7.98;100.00;102878.50;4955665;28;20035;-75
2021/12/15 04:03:25;;;;;;;91.35;25.02;;;;;;;8.08;100.00;102866.53;4954612;28;21123;-74
2021/12/15 04:05:52;;;;;;;85.63;25.80;;;;;;;7.90;100.00;102867.19;4952369;28;20035;-75
2021/12/15 04:08:18;;;;;;;99.05;33.30;;;;;;;8.13;100.00;102870.88;4955054;28;20134;-74
2021/12/15 04:10:43;;;;;;;82.90;22.85;;;;;;;7.98;100.00;102881.19;4948906;28;20034;-75
2021/12/15 04:13:10;;;;;;;102.65;32.20;;;;;;;8.08;100.00;102877.25;4956616;28;20427;-75
2021/12/15 04:15:43;;;;;;;77.85;23.02;;;;;;;8.08;100.00;102889.75;4953035;28;20041;-75
2021/12/15 04:18:10;;;;;;;82.13;26.10;;;;;;;7.77;100.00;102856.91;4956160;28;20118;-74
2021/12/15 04:20:36;;;;;;;82.75;23.70;;;;;;;7.96;100.00;102873.19;4957604;28;20027;-75
2021/12/15 04:23:04;;;;;;;91.85;30.38;;;;;;;7.81;100.00;102849.66;4950336;28;20383;-74
2021/12/15 04:25:33;;;;;;;91.15;27.55;;;;;;;7.99;100.00;102852.63;4955639;28;20639;-74
2021/12/15 04:28:10;;;;;;;83.50;27.98;;;;;;;8.15;100.00;102891.31;4958033;28;20045;-75
2021/12/15 04:30:39;;;;;;;81.72;23.83;;;;;;;7.88;100.00;102864.56;4961259;28;20039;-74
2021/12/15 04:33:12;;;;;;;89.53;29.77;;;;;;;8.00;100.00;102870.41;4958771;28;20030;-74
2021/12/15 04:35:38;;;;;;;76.97;22.80;;;;;;;7.85;100.00;102863.78;4961944;28;20396;-74
2021/12/15 04:38:04;;;;;;;68.03;22.95;;;;;;;7.93;100.00;102885.81;4955735;28;20540;-74
2021/12/15 04:40:29;;;;;;;70.85;22.38;;;;;;;8.03;100.00;102873.88;4957360;28;20030;-75
2021/12/15 04:42:56;;;;;;;92.15;27.27;;;;;;;8.12;100.00;102891.41;4954214;28;20031;-75
2021/12/15 04:45:22;;;;;;;77.65;25.00;;;;;;;8.09;100.00;102895.03;4958935;28;20054;-75
2021/12/15 04:47:52;;;;;;;86.95;26.42;;;;;;;8.10;100.00;102898.63;4959829;28;20032;-75
2021/12/15 04:50:22;;;;;;;78.38;24.08;;;;;;;7.91;100.00;102882.31;4942854;28;20039;-75
2021/12/15 04:52:49;;;;;;;89.30;27.52;;;;;;;8.07;100.00;102904.97;4956362;28;20027;-74
2021/12/15 04:55:15;;;;;;;72.40;23.52;;;;;;;8.02;100.00;102898.00;4958805;28;20034;-73
2021/12/15 04:57:41;;;;;;;90.25;25.67;;;;;;;8.03;100.00;102903.31;4955159;28;20078;-74
2021/12/15 05:00:11;;;;;;;65.65;20.98;;;;;;;7.89;100.00;102881.47;4952927;28;20256;-69
2021/12/15 05:02:37;;;;;;;86.55;27.73;;;;;;;8.08;100.00;102879.06;4956601;28;20131;-68
2021/12/15 05:05:04;;;;;;;86.15;25.17;;;;;;;8.09;100.00;102908.41;4955369;28;20114;-68
2021/12/15 05:07:30;;;;;;;73.50;21.63;;;;;;;8.04;100.00;102905.06;4965091;28;20042;-69
2021/12/15 05:09:55;;;;;;;70.45;23.13;;;;;;;8.07;100.00;102907.63;4956046;28;20041;-68
2021/12/15 05:12:21;;;;;;;85.32;28.50;;;;;;;8.34;100.00;102906.72;4959303;28;20462;-68
2021/12/15 05:14:47;;;;;;;78.93;24.80;;;;;;;8.35;100.00;102914.66;4958275;28;20411;-68
2021/12/15 05:17:12;;;;;;;75.80;26.95;;;;;;;8.17;100.00;102907.28;4958175;28;20023;-69
2021/12/15 05:19:38;;;;;;;84.68;30.13;;;;;;;8.24;100.00;102907.03;4956543;28;20658;-69
2021/12/15 05:22:05;;;;;;;84.78;26.85;;;;;;;8.09;100.00;102903.06;4957466;28;20751;-74
2021/12/15 05:24:31;;;;;;;74.90;25.85;;;;;;;8.00;100.00;102900.72;4958276;28;20022;-74
2021/12/15 05:27:02;;;;;;;70.53;23.40;;;;;;;8.16;100.00;102922.50;4957382;28;20026;-75
2021/12/15 05:29:28;;;;;;;85.07;27.60;;;;;;;8.26;100.00;102915.00;4958277;28;20027;-74
2021/12/15 05:31:54;;;;;;;67.90;21.35;;;;;;;7.94;100.00;102895.59;4953791;28;20038;-75
2021/12/15 05:34:20;;;;;;;80.53;25.08;;;;;;;8.31;100.00;102915.72;4956691;28;20093;-74
2021/12/15 05:36:47;;;;;;;75.15;26.00;;;;;;;8.17;100.00;102918.88;4954760;28;20810;-74
2021/12/15 05:39:13;;;;;;;78.93;26.65;;;;;;;8.11;100.00;102900.38;4960663;28;20030;-75
2021/12/15 05:41:38;;;;;;;76.35;23.63;;;;;;;8.15;100.00;102909.16;4957589;28;21016;-75
2021/12/15 05:44:05;;;;;;;83.65;27.52;;;;;;;8.20;100.00;102932.16;4953550;28;20027;-69
2021/12/15 05:46:31;;;;;;;75.95;25.27;;;;;;;8.20;100.00;102917.91;4955406;28;20390;-75
2021/12/15 05:48:56;;;;;;;64.57;21.40;;;;;;;8.19;100.00;102918.81;4959379;28;20198;-74
2021/12/15 05:51:22;;;;;;;84.35;27.88;;;;;;;8.18;100.00;102909.03;4957631;28;20039;-75
2021/12/15 05:53:47;;;;;;;74.57;23.02;;;;;;;8.21;100.00;102920.50;4952510;28;20143;-75
2021/12/15 05:56:13;;;;;;;87.32;27.77;;;;;;;8.30;100.00;102924.69;4957892;28;20030;-75
2021/12/15 05:58:39;;;;;;;80.30;23.20;;;;;;;8.03;100.00;102891.72;4956907;28;20648;-75
2021/12/15 06:01:06;;;;;;;80.38;24.85;;;;;;;8.29;100.00;102904.19;4953833;28;20471;-74
2021/12/15 06:03:32;;;;;;;81.47;26.73;;;;;;;8.25;100.00;102878.47;4954303;28;20034;-74
2021/12/15 06:05:57;;;;;;;72.97;23.73;;;;;;;8.25;100.00;102919.47;4962076;28;20466;-69
2021/12/15 06:08:24;;;;;;;75.18;25.35;;;;;;;8.02;100.00;102877.47;4958369;28;20094;-69
2021/12/15 06:10:49;;;;;;;75.07;25.35;;;;;;;7.93;100.00;102873.31;4961582;28;20425;-68
2021/12/15 06:13:15;;;;;;;80.05;25.27;;;;;;;8.00;100.00;102897.16;4957235;28;20050;-68
2021/12/15 06:15:42;;;;;;;71.97;23.90;;;;;;;8.10;100.00;102923.56;4959837;28;20053;-68
2021/12/15 06:18:14;;;;;;;72.47;22.05;;;;;;;8.41;100.00;102949.25;4953465;28;20109;-68
2021/12/15 06:20:41;;;;;;;77.18;24.23;;;;;;;8.30;100.00;102953.25;4964373;28;20034;-68
2021/12/15 06:23:11;;;;;;;68.70;21.20;;;;;;;7.79;100.00;102870.22;4956559;28;20027;-68
2021/12/15 06:25:39;;;;;;;69.95;21.50;;;;;;;8.21;100.00;102955.28;4956865;28;20031;-68
2021/12/15 06:28:05;;;;;;;67.10;21.10;;;;;;;8.21;100.00;102930.34;4953565;28;20037;-68
2021/12/15 06:30:31;;;;;;;88.15;28.80;;;;;;;8.21;100.00;102884.84;4956770;28;20027;-68
2021/12/15 06:32:57;;;;;;;60.55;18.88;;;;;;;8.02;100.00;102896.22;4956415;28;20041;-74
2021/12/15 06:35:23;;;;;;;90.20;29.98;;;;;;;8.33;100.00;102935.28;4955794;28;20035;-73
2021/12/15 06:37:48;;;;;;;63.72;20.80;;;;;;;8.03;100.00;102911.34;4953917;28;20536;-74
2021/12/15 06:40:14;;;;;;;67.97;21.17;;;;;;;7.98;100.00;102905.25;4953794;28;20031;-75
2021/12/15 06:42:41;;;;;;;90.15;29.45;;;;;;;8.11;100.00;102906.56;4959049;28;20034;-74
2021/12/15 06:45:10;;;;;;;80.07;23.52;;;;;;;8.17;100.00;102909.97;4959744;28;20045;-74
2021/12/15 06:58:31;;;;;;;77.90;22.75;;;;;;;8.14;100.00;102940.41;4953027;28;20037;-74
2021/12/15 07:00:59;;;;;;;74.88;21.67;;;;;;;8.04;100.00;102914.88;4953093;28;20030;-68
2021/12/15 07:03:25;;;;;;;79.43;24.63;;;;;;;8.18;100.00;102933.13;4953935;28;20533;-68
2021/12/15 07:05:52;;;;;;;91.45;27.23;;;;;;;8.40;100.00;102968.06;4956318;28;20083;-74
2021/12/15 07:08:18;;;;;;;94.57;26.65;;;;;;;8.26;100.00;102939.97;4957196;28;20041;-75
2021/12/15 07:10:46;;;;;;;77.03;22.50;;;;;;;8.16;100.00;102961.75;4955365;28;20023;-74
2021/12/15 07:13:13;;;;;;;100.53;33.03;;;;;;;8.09;100.00;102937.00;4959392;28;20569;-74
2021/12/15 07:15:39;;;;;;;106.25;33.15;;;;;;;8.54;100.00;102965.81;4955970;28;20046;-74
2021/12/15 07:18:09;;;;;;;97.80;28.50;;;;;;;8.21;100.00;102968.69;4960736;28;20031;-75
2021/12/15 07:23:12;;;;;;;93.07;26.73;;;;;;;8.05;100.00;102952.28;4952907;28;20038;-73
2021/12/15 07:25:40;;;;;;;101.88;29.42;;;;;;;8.42;100.00;102979.59;4954522;28;20035;-74
2021/12/15 07:28:06;;;;;;;99.07;29.15;;;;;;;8.41;100.00;102978.72;4955202;28;20061;-74
2021/12/15 07:30:32;;;;;;;109.63;34.05;;;;;;;8.67;100.00;102978.78;4957129;28;20030;-74
2021/12/15 07:32:58;;;;;;;91.00;24.73;;;;;;;8.28;100.00;102972.03;4958801;28;20037;-68
2021/12/15 07:35:25;;;;;;;103.38;30.10;;;;;;;8.32;100.00;102962.09;4959881;28;20050;-68
2021/12/15 07:37:51;;;;;;;94.88;26.55;;;;;;;8.14;100.00;102968.94;4954493;28;20402;-68
2021/12/15 07:40:21;;;;;;;90.80;27.15;;;;;;;8.29;100.00;102979.16;4954749;28;20039;-67
2021/12/15 07:45:28;;;;;;;100.28;27.50;;;;;;;8.25;100.00;102970.31;4958971;28;20034;-69
2021/12/15 07:47:57;;;;;;;86.72;26.35;;;;;;;8.41;100.00;102977.84;4954986;28;20026;-68
2021/12/15 07:50:24;;;;;;;101.15;30.83;;;;;;;8.26;100.00;102966.72;4945717;28;20045;-69
2021/12/15 07:52:51;;;;;;;93.20;24.95;;;;;;;8.32;100.00;102981.72;4959372;28;20027;-74
2021/12/15 07:55:20;;;;;;;107.40;28.90;;;;;;;8.31;100.00;102981.75;4958397;28;20114;-69
2021/12/15 07:57:46;;;;;;;81.82;22.77;;;;;;;8.16;100.00;102992.06;4954475;28;20615;-68
2021/12/15 08:00:14;;;;;;;131.70;35.92;;;;;;;8.47;100.00;102991.03;4959233;28;20035;-69
2021/12/15 08:02:39;;;;;;;98.00;24.70;;;;;;;8.32;100.00;102995.09;4959137;28;20039;-69
2021/12/15 08:05:06;;;;;;;92.57;26.10;;;;;;;7.90;100.00;102959.00;4964197;28;20093;-68
2021/12/15 08:07:31;;;;;;;104.63;24.33;;;;;;;8.28;100.00;102989.88;4956664;28;20375;-68
2021/12/15 08:09:57;;;;;;;103.68;25.92;;;;;;;8.08;100.00;102956.66;4953358;28;20049;-69
2021/12/15 08:12:22;;;;;;;99.72;26.08;;;;;;;7.94;100.00;102949.06;4957416;28;20038;-69
2021/12/15 08:14:51;;;;;;;103.18;27.77;;;;;;;8.25;100.00;102997.09;4955705;28;20062;-69
2021/12/15 08:17:16;;;;;;;119.40;31.08;;;;;;;8.43;100.00;103005.44;4963513;28;20584;-75
2021/12/15 08:19:42;;;;;;;123.68;30.02;;;;;;;8.32;100.00;102996.88;4961344;28;20035;-75
2021/12/15 08:22:09;;;;;;;117.82;30.52;;;;;;;8.25;100.00;103004.25;4958487;28;20095;-73
2021/12/15 08:24:34;;;;;;;131.95;38.47;;;;;;;8.55;100.00;102988.97;4956141;28;20070;-70
2021/12/15 08:26:59;;;;;;;108.82;28.80;;;;;;;8.41;100.00;103005.47;4959046;28;20109;-68
2021/12/15 08:29:25;;;;;;;99.40;26.35;;;;;;;8.11;100.00;102975.28;4955029;28;20055;-68
2021/12/15 08:31:51;;;;;;;119.53;28.98;;;;;;;8.29;100.00;103013.03;4962444;28;20023;-69
2021/12/15 08:34:17;;;;;;;98.25;26.20;;;;;;;8.37;100.00;103000.28;4955338;28;20034;-68
2021/12/15 08:36:43;;;;;;;114.38;29.92;;;;;;;8.29;100.00;102999.66;4958129;28;20039;-75
2021/12/15 08:39:11;;;;;;;124.78;33.92;;;;;;;8.18;100.00;102978.63;4957178;28;20122;-75
2021/12/15 08:41:36;;;;;;;120.28;33.33;;;;;;;8.50;100.00;103008.81;4961929;28;20639;-74
2021/12/15 08:44:06;;;;;;;107.95;25.65;;;;;;;8.39;100.00;102983.25;4954934;28;20082;-75
2021/12/15 08:46:36;;;;;;;109.43;27.20;;;;;;;8.19;100.00;102980.38;4958042;28;20058;-69
2021/12/15 08:49:02;;;;;;;101.57;27.63;;;;;;;8.40;100.00;103021.59;4959073;28;20054;-74
2021/12/15 08:51:28;;;;;;;109.25;26.77;;;;;;;8.33;100.00;103009.34;4957543;28;20027;-75
2021/12/15 08:53:59;;;;;;;102.50;26.80;;;;;;;8.31;100.00;103011.19;4960075;28;20098;-75
2021/12/15 08:56:25;;;;;;;132.23;35.13;;;;;;;8.73;100.00;103008.03;4954526;28;20434;-74
2021/12/15 08:58:51;;;;;;;103.70;26.65;;;;;;;8.49;100.00;103017.78;4952411;28;20473;-75
2021/12/15 09:01:19;;;;;;;93.60;25.08;;;;;;;8.60;100.00;103017.41;4953210;28;20530;-75
2021/12/15 09:03:45;;;;;;;118.35;31.23;;;;;;;8.49;100.00;103018.63;4957535;28;20030;-74
2021/12/15 09:06:12;;;;;;;103.25;29.70;;;;;;;8.31;100.00;102979.97;4954356;28;20109;-76
2021/12/15 09:08:38;;;;;;;111.45;28.48;;;;;;;8.28;100.00;102996.13;4958844;28;20577;-77
2021/12/15 09:11:07;;;;;;;94.53;25.33;;;;;;;8.34;100.00;102981.66;4953793;23;20407;-68
2021/12/15 09:13:36;;;;;;;113.82;34.33;;;;;;;8.48;100.00;103018.66;4920482;29;20051;-69
2021/12/15 09:16:05;;;;;;;101.75;27.80;;;;;;;8.28;100.00;102987.22;4917385;29;20040;-69
2021/12/15 09:18:31;;;;;;;109.53;29.05;;;;;;;8.67;100.00;103025.16;4919855;29;20028;-70
2021/12/15 09:20:57;;;;;;;87.25;25.65;;;;;;;8.59;100.00;103021.91;4922411;29;20027;-69
2021/12/15 09:23:23;;;;;;;121.30;36.38;;;;;;;8.75;100.00;103035.59;4914320;29;20028;-68
2021/12/15 09:25:51;;;;;;;95.97;24.67;;;;;;;8.40;100.00;103008.22;4919790;29;20028;-75
2021/12/15 09:28:19;;;;;;;101.15;27.70;;;;;;;8.63;100.00;103039.56;4920476;29;20048;-69
2021/12/15 09:30:46;;;;;;;130.13;43.60;;;;;;;8.88;100.00;103032.50;4914832;29;20063;-68
2021/12/15 09:33:18;;;;;;;102.72;28.80;;;;;;;8.52;100.00;103002.47;4917319;29;20035;-68
2021/12/15 09:35:44;;;;;;;125.68;38.67;;;;;;;8.82;100.00;103018.38;4921001;29;20031;-68
2021/12/15 09:38:13;;;;;;;95.22;25.42;;;;;;;8.35;100.00;103011.03;4934335;28;20035;-68
2021/12/15 09:40:40;;;;;;;120.47;33.05;;;;;;;8.77;100.00;103052.50;4919623;29;20054;-69
2021/12/15 09:43:06;;;;;;;106.65;29.02;;;;;;;8.43;100.00;103021.50;4921819;29;20047;-69
2021/12/15 10:02:56;;;;;;;87.32;26.33;;;;;;;8.61;100.00;103030.72;4917256;29;20207;-75
2021/12/15 10:22:45;;;;;;;100.68;29.80;;;;;;;9.10;100.00;103060.28;4936238;28;20042;-68
2021/12/15 10:25:15;;;;;;;97.75;31.10;;;;;;;9.19;100.00;103051.00;4939667;28;20038;-68
2021/12/15 10:27:53;;;;;;;90.05;28.60;;;;;;;8.94;100.00;103018.91;4936913;28;20122;-69
2021/12/15 10:30:22;;;;;;;80.13;26.45;;;;;;;9.20;100.00;103052.75;4936866;28;20950;-74
2021/12/15 10:32:54;;;;;;;91.57;28.80;;;;;;;9.03;100.00;103034.63;4939205;28;20081;-69
2021/12/15 10:35:25;;;;;;;84.60;25.50;;;;;;;9.15;100.00;103054.72;4939867;28;20550;-68
2021/12/15 10:38:16;;;;;;;82.25;26.60;;;;;;;9.31;100.00;103063.09;4939314;28;20081;-75
2021/12/15 10:40:51;;;;;;;84.55;27.23;;;;;;;9.25;100.00;103015.09;4940613;28;20123;-75
2021/12/15 10:43:19;;;;;;;87.18;28.80;;;;;;;9.46;100.00;103056.28;4939001;28;20122;-75
2021/12/15 10:46:05;;;;;;;81.82;29.17;;;;;;;9.13;100.00;103017.28;4939898;29;20602;-77
2021/12/15 10:48:37;;;;;;;86.50;28.10;;;;;;;9.47;100.00;103054.50;4940569;28;20030;-74
2021/12/15 10:51:41;;;;;;;90.07;29.95;;;;;;;9.56;100.00;103063.06;4942467;28;20027;-74
2021/12/15 10:54:16;;;;;;;81.80;27.75;;;;;;;9.44;100.00;103052.78;4937689;28;20058;-74
2021/12/15 10:56:51;;;;;;;85.18;31.50;;;;;;;9.39;100.00;103041.38;4937373;28;20331;-72
2021/12/15 10:59:17;;;;;;;77.68;28.65;;;;;;;9.69;100.00;103065.25;4936100;28;20050;-75
2021/12/15 11:01:52;;;;;;;89.05;30.83;;;;;;;9.73;100.00;103067.78;4938588;28;20059;-75
2021/12/15 11:04:28;;;;;;;76.50;29.85;;;;;;;9.72;100.00;103055.31;4937721;29;20846;-72
2021/12/15 11:07:07;;;;;;;82.75;31.05;;;;;;;9.87;100.00;103051.16;4940666;28;20035;-74
2021/12/15 11:09:36;;;;;;;74.22;31.33;;;;;;;9.85;100.00;103058.38;4936283;28;20121;-71
2021/12/15 11:12:07;;;;;;;85.53;33.22;;;;;;;10.08;100.00;103051.22;4937622;28;20047;-68
2021/12/15 11:14:36;;;;;;;80.10;29.83;;;;;;;9.90;100.00;103051.03;4934041;28;20725;-68
2021/12/15 11:17:24;;;;;;;78.78;31.42;;;;;;;9.68;100.00;103045.63;4937907;28;20027;-69
2021/12/15 11:19:59;;;;;;;81.05;28.90;;;;;;;9.32;100.00;102988.91;4923701;28;20122;-69
2021/12/15 11:22:54;;;;;;;75.50;29.42;;;;;;;9.52;100.00;103020.34;4937359;28;20027;-69
2021/12/15 11:25:37;;;;;;;73.03;28.58;;;;;;;9.65;100.00;103052.94;4939391;28;20035;-76
2021/12/15 11:28:23;;;;;;;82.28;36.22;;;;;;;9.75;100.00;103046.25;4935415;28;20031;-74
2021/12/15 11:30:57;;;;;;;79.45;28.38;;;;;;;9.59;100.00;103029.88;4937601;28;20055;-75
2021/12/15 11:33:27;;;;;;;67.05;27.52;;;;;;;9.60;100.00;103028.94;4940960;28;20398;-75
2021/12/15 11:36:11;;;;;;;72.80;28.10;;;;;;;9.70;100.00;103032.13;4935915;28;20043;-69
2021/12/15 11:39:34;;;;;;;74.97;29.33;;;;;;;9.78;100.00;103047.97;4932359;28;20035;-69
2021/12/15 11:42:52;;;;;;;;;;;;;;;;;;;;;
2021/12/15 11:45:18;;;;;;;72.90;27.58;;;;;;;9.61;100.00;103033.38;4863025;29;20051;-74
2021/12/15 11:47:43;;;;;;;78.20;30.83;;;;;;;9.90;100.00;103050.13;4941492;29;20023;-72
2021/12/15 11:50:12;;;;;;;72.85;29.25;;;;;;;9.97;100.00;103045.41;4939402;28;20031;-74
2021/12/15 11:52:40;;;;;;;77.60;29.67;;;;;;;10.10;100.00;103048.47;4942722;28;20038;-75
2021/12/15 11:55:07;;;;;;;79.82;31.67;;;;;;;10.03;100.00;103045.16;4937786;28;20027;-67
2021/12/15 11:57:34;;;;;;;73.22;26.92;;;;;;;9.93;100.00;103038.44;4941921;28;20070;-68
2021/12/15 12:00:13;;;;;;;73.22;30.67;;;;;;;9.85;100.00;103039.59;4942852;29;20023;-69
2021/12/15 12:02:40;;;;;;;69.05;27.50;;;;;;;9.66;100.00;102992.97;4941057;28;20603;-69
2021/12/15 12:05:12;;;;;;;66.82;26.25;;;;;;;9.79;100.00;103031.78;4939345;29;20050;-69
2021/12/15 12:07:47;;;;;;;74.63;29.38;;;;;;;9.96;100.00;103027.53;4939298;28;20792;-69
2021/12/15 12:10:19;;;;;;;71.35;28.10;;;;;;;9.92;100.00;103020.59;4941533;28;20511;-68
2021/12/15 12:12:54;;;;;;;65.32;26.77;;;;;;;9.89;100.00;103017.09;4938886;28;20059;-69
2021/12/15 12:15:27;;;;;;;73.28;32.22;;;;;;;10.01;100.00;103017.50;4941794;29;20034;-68
2021/12/15 12:17:56;;;;;;;68.32;28.73;;;;;;;10.05;100.00;103027.19;4940220;28;20039;-69
2021/12/15 12:20:27;;;;;;;71.85;28.58;;;;;;;10.11;100.00;103034.09;4936967;28;20783;-68
2021/12/15 12:22:56;;;;;;;66.13;26.75;;;;;;;10.02;100.00;103022.81;4937349;28;20071;-76
2021/12/15 12:25:37;;;;;;;71.47;27.15;;;;;;;10.00;100.00;103011.28;4935859;28;20059;-77
2021/12/15 12:28:04;;;;;;;69.93;28.75;;;;;;;10.23;100.00;103021.97;4940216;28;20050;-75
2021/12/15 12:30:36;;;;;;;68.97;30.30;;;;;;;10.15;100.00;103028.56;4940665;28;20031;-68
2021/12/15 12:33:08;;;;;;;72.00;29.58;;;;;;;10.07;100.00;103019.94;4939081;28;20028;-68
2021/12/15 12:35:35;;;;;;;80.45;32.13;;;;;;;10.06;100.00;103024.41;4939952;28;20027;-68
2021/12/15 12:38:07;;;;;;;74.25;30.15;;;;;;;10.03;100.00;103019.22;4940486;29;20034;-68
2021/12/15 12:40:38;;;;;;;70.43;28.17;;;;;;;10.17;100.00;103017.75;4941095;28;20042;-69